Accueil
METAR-TAF:

METAR-TAF

Aéroports :

Farmville Regional Airport

Farmville, Virginie, États-Unis

latitude: 37-21N, longitude: 078-26W, altitude: 125 m

Observation

Le bulletin a été fait il y a 21 minutes, à 00:55 UTC
Vent 6 kt de sud/sud-ouest
Température 14°C
Humidité 55%
Pression 1013 hPa
Visibilité: 16.1 km
Ciel clair

METAR: KFVX 120055Z AUTO 20006KT 10SM CLR 14/05 A2992 RMK AO2 T01390048

Heure: 20:16 (01:16 UTC)


TAF: absent

Observations et prévisions météorologiques de plus de 4000 aéroports (messages METAR et TAF).

Les stations disponibles sont représentées par des disques jaunes et rouges sur la carte.

Passer la souris dessus pour voir le nom de la station.

Cliquer dessus pour voir les observations et prévisions météorologiques.

Pour changer de carte: cliquez sur les boutons verts avec une croix noire pour zoomer, sur le bouton vert avec un tiret pour effectuer un zoom arrière, ou sur les flèches vertes pour les cartes adjacentes.


METAR-TAF: